createdAt,value
2022-10-29T00:00:52.780Z,14.90
2022-10-29T00:03:20.967Z,14.82
2022-10-29T00:06:09.769Z,14.77
2022-10-29T00:08:38.586Z,14.57
2022-10-29T00:11:16.102Z,14.71
2022-10-29T00:13:44.323Z,14.77
2022-10-29T00:16:11.318Z,14.50
2022-10-29T00:18:38.414Z,14.49
2022-10-29T00:21:08.335Z,14.44
2022-10-29T00:23:35.509Z,14.45
2022-10-29T00:26:03.317Z,14.43
2022-10-29T00:28:30.741Z,14.50
2022-10-29T00:31:02.608Z,14.61
2022-10-29T00:33:29.668Z,14.46
2022-10-29T00:36:07.946Z,14.59
2022-10-29T00:38:35.690Z,14.58
2022-10-29T00:41:04.976Z,14.40
2022-10-29T00:43:37.358Z,14.36
2022-10-29T00:46:31.263Z,14.41
2022-10-29T00:48:59.038Z,14.39
2022-10-29T00:51:27.413Z,14.42
2022-10-29T00:54:02.495Z,14.35
2022-10-29T00:56:33.930Z,14.36
2022-10-29T00:59:01.538Z,14.42
2022-10-29T01:01:28.761Z,14.26
2022-10-29T01:03:57.250Z,14.36
2022-10-29T01:06:24.523Z,14.26
2022-10-29T01:08:52.464Z,14.16
2022-10-29T01:11:37.932Z,14.16
2022-10-29T01:14:28.280Z,14.20
2022-10-29T01:17:10.911Z,14.14
2022-10-29T01:20:24.301Z,14.09
2022-10-29T01:23:24.605Z,14.06
2022-10-29T01:26:19.829Z,14.14
2022-10-29T01:28:56.036Z,14.22
2022-10-29T01:31:31.539Z,14.04
2022-10-29T01:34:31.473Z,13.97
2022-10-29T01:37:09.173Z,13.97
2022-10-29T01:39:53.144Z,13.93
2022-10-29T01:42:32.054Z,13.85
2022-10-29T01:45:26.940Z,13.72
2022-10-29T01:47:59.156Z,13.69
2022-10-29T01:50:27.267Z,13.71
2022-10-29T01:52:55.340Z,13.76
2022-10-29T01:55:29.967Z,13.72
2022-10-29T01:57:57.343Z,13.86
2022-10-29T02:00:25.544Z,14.08
2022-10-29T02:03:04.551Z,14.13
2022-10-29T02:05:58.211Z,14.03
2022-10-29T02:08:40.481Z,14.02
2022-10-29T02:11:39.821Z,14.14
2022-10-29T02:14:12.587Z,13.55
2022-10-29T02:16:40.322Z,13.16
2022-10-29T02:19:07.382Z,13.22
2022-10-29T02:21:34.486Z,13.59
2022-10-29T02:24:01.546Z,13.56
2022-10-29T02:26:28.646Z,13.76
2022-10-29T02:28:55.711Z,13.73
2022-10-29T02:31:22.778Z,13.87
2022-10-29T02:33:50.033Z,13.82
2022-10-29T02:36:17.124Z,13.97
2022-10-29T02:38:44.171Z,14.02
2022-10-29T02:41:11.234Z,13.90
2022-10-29T02:43:38.279Z,13.88
2022-10-29T02:46:14.265Z,13.98
2022-10-29T02:48:41.711Z,14.11
2022-10-29T02:51:09.127Z,13.94
2022-10-29T02:53:36.393Z,13.74
2022-10-29T02:56:04.691Z,13.71
2022-10-29T02:58:32.240Z,13.61
2022-10-29T03:00:59.740Z,13.79
2022-10-29T03:03:27.105Z,13.99
2022-10-29T03:05:54.493Z,14.10
2022-10-29T03:08:21.592Z,14.08
2022-10-29T03:10:48.708Z,14.17
2022-10-29T03:13:15.840Z,14.23
2022-10-29T03:15:46.194Z,14.24
2022-10-29T03:18:13.329Z,14.31
2022-10-29T03:20:40.387Z,14.10
2022-10-29T03:23:07.467Z,14.35
2022-10-29T03:25:34.544Z,14.36
2022-10-29T03:28:05.338Z,14.37
2022-10-29T03:30:32.783Z,14.28
2022-10-29T03:32:59.909Z,14.19
2022-10-29T03:35:27.243Z,14.34
2022-10-29T03:37:54.296Z,14.19
2022-10-29T03:40:21.448Z,14.22
2022-10-29T03:42:48.581Z,14.31
2022-10-29T03:45:15.924Z,14.42
2022-10-29T03:47:42.988Z,14.17
2022-10-29T03:50:10.203Z,14.12
2022-10-29T03:52:37.775Z,13.96
2022-10-29T03:55:06.022Z,13.94
2022-10-29T03:57:33.126Z,13.88
2022-10-29T04:00:00.852Z,13.89
2022-10-29T04:02:28.080Z,13.97
2022-10-29T04:04:55.250Z,14.02
2022-10-29T04:07:22.409Z,13.99
2022-10-29T04:09:49.512Z,14.07
2022-10-29T04:12:16.582Z,13.96
2022-10-29T04:14:45.964Z,13.91
2022-10-29T04:17:12.940Z,14.04
2022-10-29T04:19:40.539Z,14.12
2022-10-29T04:30:29.502Z,13.78
2022-10-29T04:33:00.474Z,13.92
2022-10-29T04:35:28.751Z,13.99
2022-10-29T04:37:58.549Z,14.09
2022-10-29T04:40:25.718Z,13.96
2022-10-29T04:42:52.958Z,14.12
2022-10-29T04:45:20.204Z,14.08
2022-10-29T04:47:47.288Z,14.14
2022-10-29T04:50:14.412Z,14.09
2022-10-29T04:52:41.548Z,14.18
2022-10-29T04:55:08.793Z,14.12
2022-10-29T04:57:35.903Z,14.23
2022-10-29T05:00:03.805Z,14.30
2022-10-29T05:02:30.833Z,14.30
2022-10-29T05:04:57.942Z,14.41
2022-10-29T05:07:25.011Z,14.41
2022-10-29T05:09:52.061Z,14.28
2022-10-29T05:12:19.120Z,14.25
2022-10-29T05:14:46.282Z,14.12
2022-10-29T05:17:13.399Z,14.12
2022-10-29T05:19:40.514Z,14.10
2022-10-29T05:22:07.542Z,14.14
2022-10-29T05:24:34.618Z,14.24
2022-10-29T05:27:02.178Z,14.34
2022-10-29T05:29:29.298Z,14.25
2022-10-29T05:31:56.350Z,14.25
2022-10-29T05:34:23.453Z,14.50
2022-10-29T05:36:50.530Z,14.45
2022-10-29T05:39:17.627Z,14.48
2022-10-29T05:41:46.421Z,14.46
2022-10-29T05:44:13.472Z,14.48
2022-10-29T05:46:40.568Z,14.61
2022-10-29T05:49:07.682Z,14.50
2022-10-29T05:51:34.744Z,14.46
2022-10-29T05:54:01.838Z,14.46
2022-10-29T05:56:28.875Z,14.47
2022-10-29T05:58:55.948Z,14.43
2022-10-29T06:01:23.082Z,14.51
2022-10-29T06:03:50.228Z,14.40
2022-10-29T06:06:17.432Z,14.47
2022-10-29T06:08:44.609Z,14.44
2022-10-29T06:11:11.661Z,14.41
2022-10-29T06:13:38.760Z,14.52
2022-10-29T06:16:06.238Z,14.59
2022-10-29T06:18:33.304Z,14.51
2022-10-29T06:21:00.526Z,14.39
2022-10-29T06:23:28.685Z,14.42
2022-10-29T06:25:58.915Z,14.31
2022-10-29T06:28:29.158Z,14.43
2022-10-29T06:30:58.936Z,14.54
2022-10-29T06:33:25.988Z,14.48
2022-10-29T06:35:53.106Z,14.46
2022-10-29T06:38:20.216Z,14.58
2022-10-29T06:40:53.648Z,14.71
2022-10-29T06:43:20.983Z,14.81
2022-10-29T06:45:50.040Z,14.78
2022-10-29T06:48:21.704Z,14.68
2022-10-29T06:50:50.668Z,14.72
2022-10-29T06:53:17.981Z,14.73
2022-10-29T06:55:45.137Z,14.87
2022-10-29T06:58:15.026Z,14.83
2022-10-29T07:00:42.757Z,14.72
2022-10-29T07:03:20.336Z,14.72
2022-10-29T07:05:47.481Z,14.70
2022-10-29T07:08:14.557Z,14.71
2022-10-29T07:10:41.699Z,14.81
2022-10-29T07:13:09.476Z,14.77
2022-10-29T07:15:36.537Z,14.76
2022-10-29T07:18:08.363Z,14.73
2022-10-29T07:20:41.971Z,14.86
2022-10-29T07:23:10.087Z,14.96
2022-10-29T07:25:38.577Z,14.90
2022-10-29T07:28:17.281Z,14.94
2022-10-29T07:30:45.116Z,14.94
2022-10-29T07:33:12.521Z,15.06
2022-10-29T07:35:39.664Z,15.10
2022-10-29T07:38:10.805Z,15.27
2022-10-29T07:40:48.570Z,15.22
2022-10-29T07:43:16.854Z,15.21
2022-10-29T07:45:51.860Z,15.32
2022-10-29T07:48:20.784Z,15.28
2022-10-29T07:50:48.285Z,15.33
2022-10-29T07:53:15.691Z,15.32
2022-10-29T07:55:42.740Z,15.26
2022-10-29T07:58:12.974Z,15.45
2022-10-29T08:00:41.603Z,15.27
2022-10-29T08:03:11.531Z,15.21
2022-10-29T08:05:40.278Z,15.28
2022-10-29T08:08:09.416Z,15.48
2022-10-29T08:10:36.715Z,15.37
2022-10-29T08:13:05.713Z,15.42
2022-10-29T08:15:34.693Z,15.53
2022-10-29T08:18:02.390Z,15.43
2022-10-29T08:20:29.738Z,15.52
2022-10-29T08:23:00.088Z,15.41
2022-10-29T08:25:27.665Z,15.46
2022-10-29T08:27:59.580Z,15.59
2022-10-29T08:30:27.000Z,15.59
2022-10-29T08:32:54.302Z,15.85
2022-10-29T08:35:21.642Z,15.83
2022-10-29T08:37:48.928Z,15.77
2022-10-29T08:40:39.536Z,15.79
2022-10-29T08:43:21.474Z,15.83
2022-10-29T08:45:54.767Z,15.84
2022-10-29T08:48:33.696Z,15.98
2022-10-29T08:51:13.416Z,16.09
2022-10-29T08:53:58.837Z,16.26
2022-10-29T08:56:38.907Z,16.28
2022-10-29T08:59:12.998Z,16.38
2022-10-29T09:01:40.741Z,16.46
2022-10-29T09:04:24.640Z,16.52
2022-10-29T09:07:16.481Z,16.64
2022-10-29T09:09:49.944Z,16.67
2022-10-29T09:12:45.052Z,16.78
2022-10-29T09:15:28.492Z,16.87
2022-10-29T09:18:16.889Z,17.02
2022-10-29T09:20:55.036Z,17.01
2022-10-29T09:23:58.764Z,17.15
2022-10-29T09:26:31.095Z,17.20
2022-10-29T09:29:08.469Z,17.23
2022-10-29T09:31:46.672Z,17.34
2022-10-29T09:34:31.628Z,17.44
2022-10-29T09:36:59.599Z,17.53
2022-10-29T09:39:36.939Z,17.53
2022-10-29T09:42:11.319Z,17.63
2022-10-29T09:44:46.792Z,17.76
2022-10-29T09:47:19.184Z,17.73
2022-10-29T09:50:35.716Z,17.77
2022-10-29T09:53:02.918Z,17.79
2022-10-29T09:55:43.362Z,17.81
2022-10-29T09:58:26.238Z,17.91
2022-10-29T10:00:54.872Z,18.01
2022-10-29T10:03:28.823Z,18.14
2022-10-29T10:05:57.367Z,18.13
2022-10-29T10:08:24.392Z,18.25
2022-10-29T10:10:53.818Z,18.23
2022-10-29T10:13:30.110Z,18.34
2022-10-29T10:15:59.677Z,18.09
2022-10-29T10:18:41.806Z,18.15
2022-10-29T10:21:26.087Z,18.20
2022-10-29T10:23:54.610Z,18.19
2022-10-29T10:26:43.035Z,18.06
2022-10-29T10:29:18.921Z,18.04
2022-10-29T10:31:48.240Z,18.06
2022-10-29T10:34:22.334Z,17.99
2022-10-29T10:37:14.422Z,17.97
2022-10-29T10:40:05.061Z,18.08
2022-10-29T10:42:37.065Z,18.46
2022-10-29T10:45:14.949Z,18.63
2022-10-29T10:47:50.166Z,18.75
2022-10-29T10:50:26.149Z,18.84
2022-10-29T10:52:55.290Z,18.80
2022-10-29T10:55:38.587Z,18.91
2022-10-29T10:58:20.986Z,18.57
2022-10-29T11:00:54.642Z,18.59
2022-10-29T11:03:30.312Z,18.57
2022-10-29T11:06:05.385Z,18.49
2022-10-29T11:08:43.305Z,18.37
2022-10-29T11:11:32.268Z,18.46
2022-10-29T11:14:06.031Z,18.56
2022-10-29T11:16:45.384Z,18.51
2022-10-29T11:19:22.690Z,18.63
2022-10-29T11:22:00.225Z,18.86
2022-10-29T11:24:38.282Z,18.80
2022-10-29T11:27:15.750Z,18.91
2022-10-29T11:29:55.392Z,19.01
2022-10-29T11:32:32.940Z,19.04
2022-10-29T11:35:17.524Z,18.99
2022-10-29T11:37:58.936Z,19.06
2022-10-29T11:40:38.714Z,19.09
2022-10-29T11:43:11.438Z,19.00
2022-10-29T11:46:02.922Z,18.97
2022-10-29T11:49:12.921Z,19.04
2022-10-29T11:51:45.795Z,19.04
2022-10-29T11:54:22.298Z,19.14
2022-10-29T11:56:56.662Z,19.13
2022-10-29T11:59:45.785Z,19.08
2022-10-29T12:02:48.129Z,19.36
2022-10-29T12:05:30.179Z,19.45
2022-10-29T12:08:06.033Z,19.46
2022-10-29T12:10:58.038Z,19.46
2022-10-29T12:13:36.450Z,19.67
2022-10-29T12:16:36.813Z,19.79
2022-10-29T12:19:36.667Z,20.03
2022-10-29T12:22:18.389Z,20.00
2022-10-29T12:25:07.074Z,20.30
2022-10-29T12:27:34.063Z,20.30
2022-10-29T12:30:05.664Z,20.43
2022-10-29T12:32:47.068Z,20.73
2022-10-29T12:35:14.072Z,20.88
2022-10-29T12:37:46.594Z,20.93
2022-10-29T12:40:28.365Z,20.95
2022-10-29T12:43:00.333Z,20.89
2022-10-29T12:45:59.575Z,21.11
2022-10-29T12:48:49.793Z,20.92
2022-10-29T12:51:54.759Z,20.86
2022-10-29T12:54:51.371Z,20.90
2022-10-29T12:57:29.422Z,21.04
2022-10-29T12:59:56.827Z,21.10
2022-10-29T13:02:37.293Z,21.33
2022-10-29T13:05:07.386Z,21.39
2022-10-29T13:07:34.737Z,21.57
2022-10-29T13:10:23.789Z,21.65
2022-10-29T13:13:07.879Z,21.71
2022-10-29T13:15:43.720Z,21.96
2022-10-29T13:18:42.049Z,22.21
2022-10-29T13:21:09.458Z,23.04
2022-10-29T13:23:37.713Z,23.57
2022-10-29T13:26:09.165Z,23.38
2022-10-29T13:28:36.166Z,23.05
2022-10-29T13:31:05.867Z,22.47
2022-10-29T13:33:32.890Z,22.72
2022-10-29T13:36:06.013Z,22.23
2022-10-29T13:38:52.135Z,21.80
2022-10-29T13:41:42.528Z,21.62
2022-10-29T13:44:16.506Z,21.62
2022-10-29T13:46:49.486Z,21.61
2022-10-29T13:49:20.929Z,22.06
2022-10-29T13:51:58.760Z,21.83
2022-10-29T13:54:30.350Z,21.63
2022-10-29T13:57:14.163Z,21.40
2022-10-29T13:59:45.701Z,21.59
2022-10-29T14:02:21.788Z,21.45
2022-10-29T14:04:56.702Z,21.14
2022-10-29T14:07:35.868Z,21.17
2022-10-29T14:10:07.272Z,21.18
2022-10-29T14:12:36.246Z,21.10
2022-10-29T14:15:15.969Z,21.25
2022-10-29T14:17:43.045Z,21.19
2022-10-29T14:20:27.619Z,20.97
2022-10-29T14:22:55.423Z,20.81
2022-10-29T14:25:36.156Z,20.76
2022-10-29T14:28:23.472Z,20.83
2022-10-29T14:31:12.203Z,20.83
2022-10-29T14:33:43.289Z,20.72
2022-10-29T14:36:20.094Z,20.72
2022-10-29T14:38:56.158Z,20.43
2022-10-29T14:41:25.476Z,20.60
2022-10-29T14:44:17.588Z,20.50
2022-10-29T14:46:58.109Z,20.57
2022-10-29T14:49:25.669Z,20.43
2022-10-29T14:52:34.579Z,20.55
2022-10-29T14:55:06.713Z,20.40
2022-10-29T14:57:39.960Z,20.40
2022-10-29T15:00:07.627Z,20.34
2022-10-29T15:02:42.650Z,20.32
2022-10-29T15:05:28.276Z,20.35
2022-10-29T15:08:10.383Z,20.31
2022-10-29T15:10:55.217Z,20.48
2022-10-29T15:13:28.009Z,20.37
2022-10-29T15:15:56.841Z,20.39
2022-10-29T15:18:25.596Z,20.36
2022-10-29T15:20:54.784Z,20.30
2022-10-29T15:23:26.693Z,20.41
2022-10-29T15:26:04.172Z,20.36
2022-10-29T15:28:38.890Z,20.40
2022-10-29T15:31:06.246Z,20.42
2022-10-29T15:33:37.017Z,20.42
2022-10-29T15:36:05.586Z,20.32
2022-10-29T15:38:35.457Z,20.14
2022-10-29T15:41:08.630Z,20.26
2022-10-29T15:43:49.415Z,20.11
2022-10-29T15:46:27.674Z,20.07
2022-10-29T15:48:55.037Z,19.92
2022-10-29T15:51:26.921Z,19.93
2022-10-29T15:54:01.924Z,19.76
2022-10-29T15:56:31.267Z,19.75
2022-10-29T15:58:59.507Z,19.71
2022-10-29T16:01:26.616Z,19.62
2022-10-29T16:03:53.780Z,19.41
2022-10-29T16:06:20.838Z,19.56
2022-10-29T16:08:51.241Z,19.51
2022-10-29T16:11:22.610Z,19.55
2022-10-29T16:13:54.576Z,19.48
2022-10-29T16:16:25.001Z,19.41
2022-10-29T16:18:53.278Z,19.44
2022-10-29T16:21:22.796Z,19.26
2022-10-29T16:23:50.690Z,19.27
2022-10-29T16:26:21.782Z,19.08
2022-10-29T16:28:48.919Z,19.05
2022-10-29T16:31:25.849Z,19.06
2022-10-29T16:33:56.360Z,19.01
2022-10-29T16:36:23.506Z,18.99
2022-10-29T16:38:50.663Z,18.76
2022-10-29T16:41:19.583Z,18.64
2022-10-29T16:43:47.621Z,18.55
2022-10-29T16:46:15.353Z,18.58
2022-10-29T16:48:42.448Z,18.56
2022-10-29T16:51:09.544Z,18.49
2022-10-29T16:53:37.356Z,18.43
2022-10-29T16:56:05.843Z,18.40
2022-10-29T16:58:32.918Z,18.29
2022-10-29T17:01:08.916Z,18.37
2022-10-29T17:03:36.163Z,18.28
2022-10-29T17:06:05.529Z,18.27
2022-10-29T17:08:33.789Z,18.34
2022-10-29T17:11:01.802Z,18.28
2022-10-29T17:13:28.878Z,18.23
2022-10-29T17:15:56.084Z,18.27
2022-10-29T17:18:24.609Z,18.24
2022-10-29T17:21:00.099Z,18.13
2022-10-29T17:23:27.641Z,18.05
2022-10-29T17:25:56.380Z,17.87
2022-10-29T17:28:24.642Z,17.72
2022-10-29T17:30:51.762Z,17.72
2022-10-29T17:33:19.227Z,17.82
2022-10-29T17:35:46.328Z,17.71
2022-10-29T17:38:13.379Z,17.60
2022-10-29T17:40:43.162Z,17.70
2022-10-29T17:43:10.294Z,17.72
2022-10-29T17:45:37.425Z,17.79
2022-10-29T17:48:04.633Z,17.67
2022-10-29T17:50:31.692Z,17.65
2022-10-29T17:52:59.037Z,17.41
2022-10-29T17:55:26.146Z,17.52
2022-10-29T17:57:53.258Z,17.53
2022-10-29T18:00:20.421Z,17.36
2022-10-29T18:02:50.917Z,17.29
2022-10-29T18:05:19.101Z,17.35
2022-10-29T18:07:46.153Z,17.39
2022-10-29T18:10:13.315Z,17.32
2022-10-29T18:12:40.476Z,17.24
2022-10-29T18:15:08.112Z,17.33
2022-10-29T18:17:36.464Z,17.00
2022-10-29T18:20:04.128Z,17.18
2022-10-29T18:22:31.201Z,17.23
2022-10-29T18:24:58.602Z,17.05
2022-10-29T18:27:25.682Z,17.02
2022-10-29T18:29:52.786Z,17.01
2022-10-29T18:32:19.991Z,17.01
2022-10-29T18:34:47.112Z,16.83
2022-10-29T18:37:14.153Z,16.99
2022-10-29T18:39:41.239Z,16.98
2022-10-29T18:42:08.274Z,16.84
2022-10-29T18:44:35.529Z,16.93
2022-10-29T18:47:02.642Z,16.90
2022-10-29T18:49:29.734Z,16.99
2022-10-29T18:51:56.927Z,16.83
2022-10-29T18:54:24.158Z,16.94
2022-10-29T18:56:51.388Z,16.76
2022-10-29T18:59:18.541Z,16.70
2022-10-29T19:01:45.705Z,16.77
2022-10-29T19:04:15.874Z,16.86
2022-10-29T19:06:43.481Z,16.70
2022-10-29T19:09:11.750Z,16.62
2022-10-29T19:11:38.867Z,16.47
2022-10-29T19:14:08.016Z,16.57
2022-10-29T19:16:35.380Z,16.93
2022-10-29T19:21:38.973Z,16.83
2022-10-29T19:24:07.533Z,16.87
2022-10-29T19:26:36.130Z,16.84
2022-10-29T19:29:04.642Z,16.93
2022-10-29T19:31:32.814Z,16.99
2022-10-29T19:34:01.672Z,16.99
2022-10-29T19:36:30.004Z,16.90
2022-10-29T19:38:57.528Z,17.00
2022-10-29T19:41:24.927Z,16.90
2022-10-29T19:43:52.113Z,17.02
2022-10-29T19:46:24.029Z,16.88
2022-10-29T19:48:52.944Z,17.08
2022-10-29T19:51:20.934Z,17.06
2022-10-29T19:53:48.080Z,17.04
2022-10-29T19:56:16.379Z,17.00
2022-10-29T19:58:43.883Z,16.99
2022-10-29T20:01:14.643Z,16.96
2022-10-29T20:03:42.313Z,17.01
2022-10-29T20:06:09.690Z,17.00
2022-10-29T20:08:37.730Z,16.83
2022-10-29T20:11:05.416Z,16.78
2022-10-29T20:13:32.617Z,16.82
2022-10-29T20:16:01.291Z,16.80
2022-10-29T20:18:28.409Z,16.96
2022-10-29T20:20:56.726Z,17.04
2022-10-29T20:23:25.617Z,17.18
2022-10-29T20:25:52.818Z,17.20
2022-10-29T20:28:19.932Z,17.09
2022-10-29T20:30:47.108Z,17.17
2022-10-29T20:33:14.163Z,17.33
2022-10-29T20:35:41.437Z,17.40
2022-10-29T20:38:08.563Z,17.26
2022-10-29T20:40:35.722Z,17.06
2022-10-29T20:43:02.879Z,17.17
2022-10-29T20:45:29.992Z,17.03
2022-10-29T20:47:57.379Z,17.07
2022-10-29T20:50:24.681Z,17.04
2022-10-29T20:52:53.610Z,17.07
2022-10-29T20:55:20.724Z,17.12
2022-10-29T20:57:47.912Z,17.31
2022-10-29T21:00:15.156Z,17.18
2022-10-29T21:02:42.393Z,17.27
2022-10-29T21:05:09.547Z,17.23
2022-10-29T21:07:38.116Z,17.23
2022-10-29T21:10:06.087Z,17.10
2022-10-29T21:12:33.171Z,17.06
2022-10-29T21:15:00.222Z,17.00
2022-10-29T21:17:27.341Z,16.91
2022-10-29T21:19:54.389Z,16.91
2022-10-29T21:22:21.445Z,16.96
2022-10-29T21:24:48.497Z,16.97
2022-10-29T21:27:15.565Z,16.97
2022-10-29T21:29:42.626Z,16.93
2022-10-29T21:32:12.860Z,17.04
2022-10-29T21:34:42.931Z,17.06
2022-10-29T21:37:09.962Z,16.91
2022-10-29T21:39:37.023Z,16.92
2022-10-29T21:42:04.093Z,16.92
2022-10-29T21:44:31.196Z,16.78
2022-10-29T21:46:58.240Z,16.70
2022-10-29T21:49:25.288Z,16.62
2022-10-29T21:51:52.412Z,16.48
2022-10-29T21:54:21.862Z,16.48
2022-10-29T21:56:51.406Z,16.46
2022-10-29T21:59:18.519Z,16.20
2022-10-29T22:01:45.709Z,16.04
2022-10-29T22:04:12.849Z,16.16
2022-10-29T22:06:39.937Z,16.24
2022-10-29T22:09:07.238Z,16.34
2022-10-29T22:11:34.339Z,16.34
2022-10-29T22:14:01.383Z,16.37
2022-10-29T22:16:28.504Z,16.31
2022-10-29T22:18:55.600Z,16.24
2022-10-29T22:21:25.504Z,16.32
2022-10-29T22:23:57.571Z,16.31
2022-10-29T22:26:29.436Z,16.26
2022-10-29T22:28:56.535Z,16.33
2022-10-29T22:31:24.139Z,16.19
2022-10-29T22:33:51.717Z,16.25
2022-10-29T22:36:21.604Z,16.25
2022-10-29T22:39:00.127Z,16.17
2022-10-29T22:41:28.543Z,16.21
2022-10-29T22:43:58.809Z,16.21
2022-10-29T22:46:26.770Z,16.26
2022-10-29T22:48:53.956Z,16.13
2022-10-29T22:51:23.321Z,16.19
2022-10-29T22:53:50.894Z,16.21
2022-10-29T22:56:35.400Z,16.24
2022-10-29T22:59:05.059Z,16.15
2022-10-29T23:01:38.794Z,16.08
2022-10-29T23:04:09.405Z,16.28
2022-10-29T23:06:36.847Z,16.20
2022-10-29T23:09:03.976Z,16.17
2022-10-29T23:11:34.816Z,16.14
2022-10-29T23:14:02.817Z,16.00
2022-10-29T23:16:32.482Z,16.12
2022-10-29T23:19:01.961Z,16.04
2022-10-29T23:21:29.419Z,16.08
2022-10-29T23:23:57.021Z,16.13
2022-10-29T23:26:25.311Z,16.13
2022-10-29T23:28:53.040Z,16.21
2022-10-29T23:31:25.861Z,16.07
2022-10-29T23:33:55.332Z,15.99
2022-10-29T23:36:24.039Z,15.97
2022-10-29T23:38:57.976Z,15.87
2022-10-29T23:41:26.429Z,15.96
2022-10-29T23:43:53.827Z,15.92
2022-10-29T23:46:21.236Z,15.93
2022-10-29T23:48:48.492Z,15.89
2022-10-29T23:51:15.861Z,15.90
2022-10-29T23:53:42.988Z,15.94
2022-10-29T23:56:10.153Z,15.85
2022-10-29T23:58:37.277Z,15.88
